Weather at Suldal Heliport

Public forecast

Using degrees Celsius for public forecast. Weather courtesy of forecast.io.

Closest aviation weather report (METAR) to Suldal Heliport

Closest report is Haugesund Airport, Karm√ły, 33.5 nm (62.1 km) WSW.

2023/09/28 23:50 (retrieved 29 minutes ago)

ENHD 282350Z AUTO 16009KT 9999 BKN045/// BKN180/// 14/11 Q1008

Closest aviation forecast (TAF) to Suldal Heliport

Forecast is more than 6 hours old.

Closest forecast is Leeuwarden Air Base, 375.9 nm (696.2 km) S.

2023/09/28 17:09 (retrieved 7 hours ago)

TAF EHLW 281637Z 2817/2905 20006KT 9999 FEW028 BKN036 PROB30 TEMPO 2904/2905 4500 RA BKN018